createdAt,value
2023-04-12T00:02:33.433Z,0.73
2023-04-12T00:06:33.163Z,0.73
2023-04-12T00:10:33.271Z,0.72
2023-04-12T00:14:33.339Z,0.71
2023-04-12T00:18:33.441Z,0.71
2023-04-12T00:22:33.516Z,0.71
2023-04-12T00:26:33.600Z,0.71
2023-04-12T00:30:33.630Z,0.69
2023-04-12T00:34:33.635Z,0.71
2023-04-12T00:38:33.708Z,0.69
2023-04-12T00:42:33.789Z,0.68
2023-04-12T00:46:33.876Z,0.68
2023-04-12T00:50:33.880Z,0.68
2023-04-12T00:54:33.985Z,0.70
2023-04-12T00:58:34.059Z,0.68
2023-04-12T01:02:34.402Z,0.67
2023-04-12T01:06:34.258Z,0.67
2023-04-12T01:10:34.321Z,0.66
2023-04-12T01:14:34.343Z,0.66
2023-04-12T01:18:34.470Z,0.66
2023-04-12T01:22:34.508Z,0.66
2023-04-12T01:26:34.692Z,0.66
2023-04-12T01:30:34.633Z,0.67
2023-04-12T01:34:34.730Z,0.66
2023-04-12T01:38:34.823Z,0.66
2023-04-12T01:42:34.867Z,0.65
2023-04-12T01:46:34.934Z,0.65
2023-04-12T01:50:34.997Z,0.65
2023-04-12T01:54:35.074Z,0.66
2023-04-12T01:58:35.078Z,0.67
2023-04-12T02:02:35.323Z,0.66
2023-04-12T02:06:35.226Z,0.64
2023-04-12T02:10:35.263Z,0.64
2023-04-12T02:14:35.348Z,0.64
2023-04-12T02:18:35.376Z,0.64
2023-04-12T02:22:35.423Z,0.64
2023-04-12T02:26:35.467Z,0.64
2023-04-12T02:30:35.520Z,0.64
2023-04-12T02:34:35.580Z,0.65
2023-04-12T02:38:35.648Z,0.65
2023-04-12T02:42:35.714Z,0.63
2023-04-12T02:46:35.790Z,0.65
2023-04-12T02:50:35.731Z,0.64
2023-04-12T02:54:35.853Z,0.64
2023-04-12T02:58:35.880Z,0.64
2023-04-12T03:02:35.966Z,0.63
2023-04-12T03:06:35.943Z,0.64
2023-04-12T03:10:35.990Z,0.64
2023-04-12T03:14:36.079Z,0.64
2023-04-12T03:18:36.298Z,0.64
2023-04-12T03:22:36.148Z,0.63
2023-04-12T03:26:36.204Z,0.63
2023-04-12T03:30:36.209Z,0.64
2023-04-12T03:34:36.243Z,0.64
2023-04-12T03:38:36.373Z,0.63
2023-04-12T03:42:36.380Z,0.63
2023-04-12T03:46:36.441Z,0.62
2023-04-12T03:50:36.436Z,0.63
2023-04-12T03:54:36.514Z,0.62
2023-04-12T03:58:36.505Z,0.62
2023-04-12T04:02:36.744Z,0.62
2023-04-12T04:06:36.606Z,0.62
2023-04-12T04:10:36.657Z,0.63
2023-04-12T04:14:36.701Z,0.62
2023-04-12T04:18:36.706Z,0.63
2023-04-12T04:22:36.716Z,0.62
2023-04-12T04:26:36.769Z,0.63
2023-04-12T04:30:36.791Z,0.63
2023-04-12T04:34:36.853Z,0.63
2023-04-12T04:38:36.873Z,0.63
2023-04-12T04:42:36.898Z,0.62
2023-04-12T04:46:36.978Z,0.63
2023-04-12T04:50:36.986Z,0.62
2023-04-12T04:54:37.103Z,0.62
2023-04-12T04:58:37.136Z,0.63
2023-04-12T05:02:37.203Z,0.63
2023-04-12T05:06:37.196Z,0.62
2023-04-12T05:10:37.259Z,0.63
2023-04-12T05:14:46.643Z,5.75
2023-04-12T05:18:38.267Z,3.10
2023-04-12T05:22:37.224Z,1.60
2023-04-12T05:26:37.124Z,1.35
2023-04-12T05:30:37.266Z,1.06
2023-04-12T05:34:37.460Z,1.01
2023-04-12T05:38:37.552Z,1.09
2023-04-12T05:42:37.618Z,0.87
2023-04-12T05:46:37.810Z,1.02
2023-04-12T05:50:37.829Z,1.16
2023-04-12T05:54:37.931Z,1.18
2023-04-12T05:58:37.988Z,1.23
2023-04-12T06:02:38.082Z,1.26
2023-04-12T06:06:38.156Z,1.25
2023-04-12T06:10:38.340Z,1.26
2023-04-12T06:14:38.560Z,1.28
2023-04-12T06:18:38.745Z,1.25
2023-04-12T06:22:38.708Z,1.21
2023-04-12T06:26:40.080Z,1.26
2023-04-12T06:30:38.635Z,1.24
2023-04-12T06:34:38.596Z,1.22
2023-04-12T06:38:38.790Z,1.20
2023-04-12T06:42:38.696Z,1.19
2023-04-12T06:46:39.028Z,1.18
2023-04-12T06:50:39.129Z,1.18
2023-04-12T06:54:39.309Z,1.17
2023-04-12T06:58:39.485Z,1.15
2023-04-12T07:02:39.789Z,1.39
2023-04-12T07:06:39.761Z,1.59
2023-04-12T07:10:39.820Z,1.99
2023-04-12T07:14:39.872Z,2.24
2023-04-12T07:18:40.279Z,2.48
2023-04-12T07:22:40.022Z,2.82
2023-04-12T07:26:40.531Z,3.25
2023-04-12T07:30:40.304Z,3.94
2023-04-12T07:34:40.587Z,4.73
2023-04-12T07:38:40.690Z,5.07
2023-04-12T07:42:40.946Z,5.56
2023-04-12T07:46:41.060Z,2.14
2023-04-12T07:50:41.206Z,1.04
2023-04-12T07:54:41.384Z,0.98
2023-04-12T07:58:41.498Z,1.70
2023-04-12T08:02:41.797Z,2.31
2023-04-12T08:06:41.776Z,3.15
2023-04-12T08:10:41.818Z,3.86
2023-04-12T08:14:41.859Z,4.36
2023-04-12T08:18:41.927Z,4.94
2023-04-12T08:22:42.070Z,5.47
2023-04-12T08:26:42.253Z,5.86
2023-04-12T08:30:42.623Z,6.14
2023-04-12T08:34:44.886Z,6.40
2023-04-12T08:38:46.131Z,6.62
2023-04-12T08:42:42.421Z,6.49
2023-04-12T08:46:42.702Z,6.32
2023-04-12T08:50:42.328Z,8.70
2023-04-12T08:54:42.328Z,9.55
2023-04-12T08:58:42.237Z,10.42
2023-04-12T09:02:43.117Z,10.51
2023-04-12T09:06:42.120Z,10.23
2023-04-12T09:10:42.196Z,10.98
2023-04-12T09:14:42.365Z,10.20
2023-04-12T09:18:42.468Z,9.30
2023-04-12T09:22:42.633Z,8.77
2023-04-12T09:26:42.829Z,7.52
2023-04-12T09:30:42.950Z,6.79
2023-04-12T09:34:43.103Z,6.29
2023-04-12T09:38:43.337Z,5.83
2023-04-12T09:42:43.478Z,5.75
2023-04-12T09:46:44.629Z,5.57
2023-04-12T09:50:43.811Z,5.46
2023-04-12T09:54:43.920Z,5.65
2023-04-12T09:58:44.153Z,5.42
2023-04-12T10:02:45.518Z,4.97
2023-04-12T10:06:44.110Z,3.97
2023-04-12T10:10:44.042Z,3.75
2023-04-12T10:14:43.987Z,3.17
2023-04-12T10:18:43.958Z,3.00
2023-04-12T10:22:43.964Z,2.41
2023-04-12T10:26:43.894Z,2.19
2023-04-12T10:30:43.825Z,2.16
2023-04-12T10:34:43.792Z,2.05
2023-04-12T10:38:43.817Z,1.89
2023-04-12T10:42:43.726Z,1.95
2023-04-12T10:46:43.819Z,1.86
2023-04-12T10:50:43.665Z,1.77
2023-04-12T10:54:43.629Z,1.75
2023-04-12T10:58:43.643Z,1.65
2023-04-12T11:02:43.591Z,1.55
2023-04-12T11:06:43.492Z,1.53
2023-04-12T11:10:43.631Z,1.44
2023-04-12T11:14:43.434Z,1.36
2023-04-12T11:18:43.522Z,1.28
2023-04-12T11:22:43.360Z,1.19
2023-04-12T11:26:43.335Z,1.13
2023-04-12T11:30:43.293Z,1.16
2023-04-12T11:34:43.232Z,1.15
2023-04-12T11:38:43.282Z,1.08
2023-04-12T11:42:43.445Z,1.04
2023-04-12T11:46:43.472Z,1.02
2023-04-12T11:50:43.541Z,1.00
2023-04-12T11:54:43.641Z,0.96
2023-04-12T11:58:43.910Z,0.93
2023-04-12T12:02:52.563Z,0.96
2023-04-12T12:06:45.076Z,0.98
2023-04-12T12:10:52.282Z,0.98
2023-04-12T12:14:44.667Z,1.09
2023-04-12T12:18:43.643Z,1.21
2023-04-12T12:22:43.590Z,1.21
2023-04-12T12:26:43.537Z,1.21
2023-04-12T12:30:43.504Z,1.22
2023-04-12T12:34:43.513Z,1.22
2023-04-12T12:38:43.592Z,1.26
2023-04-12T12:42:43.646Z,1.24
2023-04-12T12:46:55.196Z,1.22
2023-04-12T12:50:44.702Z,1.20
2023-04-12T12:54:43.671Z,1.18
2023-04-12T12:58:43.612Z,1.16
2023-04-12T13:02:51.149Z,1.12
2023-04-12T13:06:43.581Z,1.13
2023-04-12T13:10:43.503Z,1.10
2023-04-12T13:14:43.500Z,1.09
2023-04-12T13:18:43.474Z,1.05
2023-04-12T13:22:43.412Z,1.01
2023-04-12T13:26:43.422Z,0.99
2023-04-12T13:30:43.432Z,0.99
2023-04-12T13:34:43.567Z,0.97
2023-04-12T13:38:43.633Z,0.96
2023-04-12T13:42:43.723Z,0.92
2023-04-12T13:46:43.802Z,0.90
2023-04-12T13:50:43.849Z,0.84
2023-04-12T13:54:43.961Z,0.84
2023-04-12T13:58:44.040Z,0.81
2023-04-12T14:02:44.253Z,0.81
2023-04-12T14:06:44.195Z,0.77
2023-04-12T14:10:44.269Z,0.78
2023-04-12T14:14:44.374Z,0.74
2023-04-12T14:18:44.430Z,0.76
2023-04-12T14:22:44.514Z,0.70
2023-04-12T14:26:44.682Z,0.71
2023-04-12T14:30:44.684Z,0.69
2023-04-12T14:34:44.944Z,0.64
2023-04-12T14:38:44.865Z,0.60
2023-04-12T14:42:44.952Z,0.68
2023-04-12T14:46:45.109Z,0.65
2023-04-12T14:50:45.450Z,0.63
2023-04-12T14:54:45.467Z,0.64
2023-04-12T14:58:45.358Z,0.62
2023-04-12T15:02:45.633Z,0.63
2023-04-12T15:06:45.547Z,0.53
2023-04-12T15:10:45.629Z,0.61
2023-04-12T15:14:45.786Z,0.62
2023-04-12T15:18:45.883Z,0.61
2023-04-12T15:22:46.030Z,0.56
2023-04-12T15:26:46.075Z,0.58
2023-04-12T15:30:46.212Z,0.54
2023-04-12T15:34:46.269Z,0.56
2023-04-12T15:38:46.368Z,0.58
2023-04-12T15:42:46.478Z,0.58
2023-04-12T15:46:56.022Z,0.56
2023-04-12T15:50:47.480Z,0.57
2023-04-12T15:54:46.440Z,0.57
2023-04-12T15:58:46.472Z,0.57
2023-04-12T16:02:46.455Z,0.59
2023-04-12T16:06:46.545Z,0.58
2023-04-12T16:10:46.487Z,0.57
2023-04-12T16:14:46.581Z,0.57
2023-04-12T16:18:46.663Z,0.55
2023-04-12T16:22:46.736Z,0.54
2023-04-12T16:26:46.841Z,0.54
2023-04-12T16:30:46.908Z,0.54
2023-04-12T16:34:46.992Z,0.52
2023-04-12T16:38:47.110Z,0.53
2023-04-12T16:42:47.182Z,0.51
2023-04-12T16:46:47.284Z,0.50
2023-04-12T16:50:47.444Z,0.52
2023-04-12T16:54:47.515Z,0.53
2023-04-12T16:58:47.630Z,0.55
2023-04-12T17:02:47.937Z,0.51
2023-04-12T17:06:47.838Z,0.52
2023-04-12T17:10:47.924Z,0.53
2023-04-12T17:14:48.049Z,0.55
2023-04-12T17:18:48.112Z,0.53
2023-04-12T17:22:48.248Z,0.55
2023-04-12T17:26:48.360Z,0.55
2023-04-12T17:30:48.447Z,0.55
2023-04-12T17:34:48.486Z,0.53
2023-04-12T17:38:48.628Z,0.55
2023-04-12T17:42:48.721Z,0.50
2023-04-12T17:46:48.803Z,0.53
2023-04-12T17:50:48.881Z,0.54
2023-04-12T17:54:48.993Z,0.54
2023-04-12T17:58:49.072Z,0.51
2023-04-12T18:02:49.291Z,0.54
2023-04-12T18:06:49.301Z,0.52
2023-04-12T18:10:49.381Z,0.53
2023-04-12T18:14:49.488Z,0.57
2023-04-12T18:18:49.582Z,0.55
2023-04-12T18:22:49.720Z,0.56
2023-04-12T18:26:49.798Z,0.54
2023-04-12T18:30:50.058Z,0.53
2023-04-12T18:34:49.983Z,0.53
2023-04-12T18:38:50.120Z,0.50
2023-04-12T18:42:50.226Z,0.54
2023-04-12T18:46:50.346Z,0.52
2023-04-12T18:50:50.422Z,0.58
2023-04-12T18:54:50.559Z,0.57
2023-04-12T18:58:55.209Z,0.60
2023-04-12T19:02:51.700Z,0.55
2023-04-12T19:06:50.574Z,0.52
2023-04-12T19:10:50.571Z,0.57
2023-04-12T19:14:50.517Z,0.54
2023-04-12T19:18:50.648Z,0.55
2023-04-12T19:22:50.767Z,0.56
2023-04-12T19:26:50.863Z,0.56
2023-04-12T19:30:50.997Z,0.54
2023-04-12T19:34:51.089Z,0.54
2023-04-12T19:38:51.215Z,0.56
2023-04-12T19:42:51.369Z,0.60
2023-04-12T19:46:51.493Z,0.55
2023-04-12T19:50:51.604Z,0.58
2023-04-12T19:54:51.757Z,0.58
2023-04-12T19:58:51.881Z,0.62
2023-04-12T20:02:52.024Z,0.62
2023-04-12T20:06:52.104Z,0.62
2023-04-12T20:10:52.265Z,0.64
2023-04-12T20:14:52.305Z,0.60
2023-04-12T20:18:52.453Z,0.62
2023-04-12T20:22:52.567Z,0.59
2023-04-12T20:26:52.733Z,0.61
2023-04-12T20:30:52.926Z,0.57
2023-04-12T20:34:52.995Z,0.59
2023-04-12T20:38:53.106Z,0.57
2023-04-12T20:42:53.206Z,0.58
2023-04-12T20:46:53.387Z,0.60
2023-04-12T20:50:53.446Z,0.63
2023-04-12T20:54:53.585Z,0.59
2023-04-12T20:58:53.689Z,0.55
2023-04-12T21:02:53.906Z,0.57
2023-04-12T21:06:53.922Z,0.58
2023-04-12T21:10:54.002Z,0.57
2023-04-12T21:14:54.180Z,0.56
2023-04-12T21:18:54.293Z,0.60
2023-04-12T21:22:54.482Z,0.56
2023-04-12T21:26:54.554Z,0.59
2023-04-12T21:30:54.875Z,0.57
2023-04-12T21:34:54.800Z,0.55
2023-04-12T21:38:54.931Z,0.52
2023-04-12T21:42:55.044Z,0.55
2023-04-12T21:46:55.181Z,0.50
2023-04-12T21:50:55.243Z,0.51
2023-04-12T21:54:55.382Z,0.57
2023-04-12T21:58:55.766Z,0.54
2023-04-12T22:02:55.797Z,0.54
2023-04-12T22:06:55.792Z,0.56
2023-04-12T22:10:55.898Z,0.58
2023-04-12T22:14:56.021Z,0.56
2023-04-12T22:18:56.170Z,0.59
2023-04-12T22:22:56.265Z,0.51
2023-04-12T22:26:56.419Z,0.52
2023-04-12T22:30:56.568Z,0.52
2023-04-12T22:35:05.254Z,0.50
2023-04-12T22:38:57.647Z,0.46
2023-04-12T22:42:56.610Z,0.53
2023-04-12T22:46:56.614Z,0.57
2023-04-12T22:50:56.682Z,0.55
2023-04-12T22:54:56.858Z,0.52
2023-04-12T22:58:56.993Z,0.53
2023-04-12T23:02:57.249Z,0.52
2023-04-12T23:06:57.275Z,0.53
2023-04-12T23:10:57.445Z,0.53
2023-04-12T23:14:57.597Z,0.51
2023-04-12T23:18:57.729Z,0.59
2023-04-12T23:22:58.531Z,0.56
2023-04-12T23:26:58.048Z,0.57
2023-04-12T23:30:58.153Z,0.57
2023-04-12T23:34:58.267Z,0.52
2023-04-12T23:38:58.440Z,0.55
2023-04-12T23:42:58.631Z,0.56
2023-04-12T23:46:58.778Z,0.60
2023-04-12T23:50:58.916Z,0.59
2023-04-12T23:54:59.015Z,0.63
2023-04-12T23:58:59.247Z,0.54
